Airfield :
LOGIN :

Register | Disclaimer

   EN    FR    IT 

 










Legend :    VFR   Marginal VFR   IFR   Intensive IFR   Very Intensive IFR
Visi :
Ceiling :
>= 8 km
>= 3000ft
5 to 8 km
1000 to 3000 ft
1500m to 5 km
500 to 1000 ft
800 to 1500m
200 to 500 ft
< 800m
< 200 ft
Symbols :   Thunderstorms  Fog  Heavy snow  Heavy precipitations  Wind > 20 kt
SIGMETs :     Misc.  Thunderstorms  Icing  Turbulence  Mountain Waves  Volcanic Ashes






- Airport Elevation : 42 ft
- IATA code : KGD


UMKK - Khrabrava - Kaliningrad

CURRENT METAR :
  • 190400Z 22006MPS 9999 BKN024 04/01 Q1010 R24/290195 NOSIG RMK QFE756/1008

EXPIRED METARs :
  • 190330Z 21005MPS 9999 BKN023 04/01 Q1010 R24/290195 NOSIG RMK QFE756/1009
  • 190300Z 22005MPS 9999 BKN024 04/01 Q1010 R24/290195 NOSIG RMK QFE756/1009
  • 190230Z 22006MPS 9999 BKN025 04/01 Q1010 R24/290195 NOSIG RMK QFE756/1009
  • 190200Z 22005MPS 9999 BKN027 04/01 Q1010 R24/290195 NOSIG RMK QFE756/1009
  • 190130Z 23006MPS 9999 BKN029 04/02 Q1010 R24/290195 NOSIG RMK QFE757/1009

TAF TAF UMKK
Valid from the 19 at 03:00 until the 20 at 03:00 UTC


190200Z 1903/2003 22007G12MPS 9999 SCT011 BKN020
TEMPO 1903/1906 5000 -SHRA BKN012CB
BECMG 1906/1908 20008G13MPS
TEMPO 1908/1920 3100 -SHRA SCT011 BKN015CB
BECMG 1918/1920 25003G08MPS
TEMPO 1920/2003 28006MPS 4000 -SHRA BR BKN005 BKN012CB



MET'MAP, your aeronautical weather chart ! - Copyright ORBIFLY December 2007 - Disclaimer

ORBIFLY MET'MAP TEAM :

Programming & Development : Alexandra Zaïnal
Concept & original design : Baudouin d'Aumeries
Assistance for programming : Marc-Olivier Méhu
Technical & hardware support : Manuel Goepfert

Contact : metmap@orbifly.com




SOURCES & CREDITS :

   NOAA